createdAt,value
2022-11-24T08:29:33.746Z,39.24
2022-11-24T08:29:48.746Z,38.98
2022-11-24T08:30:03.707Z,38.71
2022-11-24T08:30:19.691Z,38.29
2022-11-24T08:30:41.746Z,38.05
2022-11-24T08:30:55.961Z,37.95
2022-11-24T08:31:05.895Z,37.86
2022-11-24T08:31:22.605Z,37.95
2022-11-24T08:31:34.114Z,37.67
2022-11-24T08:31:48.902Z,37.35
2022-11-24T08:32:03.811Z,37.18
2022-11-24T08:32:22.327Z,37.62
2022-11-24T08:32:33.960Z,37.49
2022-11-24T08:32:53.466Z,37.34
2022-11-24T08:33:03.749Z,37.15
2022-11-24T08:33:20.927Z,36.95
2022-11-24T08:33:33.752Z,36.73
2022-11-24T08:33:54.052Z,37.63
2022-11-24T08:34:04.370Z,37.42
2022-11-24T08:34:32.334Z,37.07
2022-11-24T08:34:47.907Z,36.85
2022-11-24T08:34:49.006Z,36.80
2022-11-24T08:35:19.424Z,36.65
2022-11-24T08:35:21.749Z,36.56
2022-11-24T08:35:34.321Z,36.42
2022-11-24T12:24:57.795Z,42.05
2022-11-24T12:25:12.663Z,38.29
2022-11-24T12:25:27.672Z,37.03
2022-11-24T12:25:42.663Z,36.83
2022-11-24T12:25:57.702Z,36.24
2022-11-24T12:26:12.718Z,36.10
2022-11-24T12:26:27.642Z,35.84
2022-11-24T12:26:42.647Z,34.98
2022-11-24T12:26:57.701Z,35.03
2022-11-24T12:27:14.810Z,35.05
2022-11-24T12:27:28.660Z,34.89
2022-11-24T12:27:42.637Z,34.83
2022-11-24T12:27:57.646Z,34.92
2022-11-24T12:28:12.652Z,35.45
2022-11-24T12:28:27.625Z,35.11
2022-11-24T12:28:42.636Z,34.90
2022-11-24T12:28:57.619Z,34.64
2022-11-24T12:29:12.638Z,34.62
2022-11-24T12:29:27.659Z,34.58
2022-11-24T12:29:42.656Z,34.61
2022-11-24T12:29:57.645Z,34.47
2022-11-24T12:30:12.788Z,34.11
2022-11-24T12:30:27.689Z,34.17
2022-11-24T12:30:42.639Z,34.19
2022-11-24T12:30:57.746Z,34.19
2022-11-24T12:31:12.749Z,34.09
2022-11-24T12:31:27.816Z,34.12
2022-11-24T12:31:42.677Z,34.15
2022-11-24T12:31:57.605Z,34.04
2022-11-24T12:32:12.601Z,34.13
2022-11-24T12:32:27.584Z,34.10
2022-11-24T12:32:42.610Z,34.05
2022-11-24T12:32:57.628Z,33.95
2022-11-24T12:33:12.651Z,33.97
2022-11-24T12:33:27.626Z,34.00
2022-11-24T12:33:47.582Z,33.92
2022-11-24T12:34:01.392Z,33.89
2022-11-24T12:34:12.626Z,33.71
2022-11-24T12:34:27.593Z,33.62
2022-11-24T12:34:42.599Z,33.55
2022-11-24T12:34:57.627Z,33.42
2022-11-24T12:35:12.595Z,33.34
2022-11-24T12:35:27.580Z,33.24
2022-11-24T12:35:42.640Z,33.21
2022-11-24T12:35:57.619Z,33.15
2022-11-24T12:36:12.621Z,32.96
2022-11-24T12:36:27.594Z,33.09
2022-11-24T12:36:42.571Z,33.12
2022-11-24T12:36:57.589Z,33.12
2022-11-24T12:37:12.616Z,33.15
2022-11-24T12:37:27.610Z,33.16
2022-11-24T12:37:42.606Z,33.13
2022-11-24T12:37:57.599Z,33.05
2022-11-24T12:38:12.633Z,33.11
2022-11-24T12:38:27.575Z,33.07
2022-11-24T12:38:42.574Z,33.10
2022-11-24T12:38:57.584Z,33.01
2022-11-24T12:39:12.588Z,33.04
2022-11-24T12:39:27.605Z,33.08
2022-11-24T12:39:42.607Z,33.06
2022-11-24T12:39:57.545Z,32.93
2022-11-24T12:40:12.598Z,32.80
2022-11-24T12:40:27.586Z,32.93
2022-11-24T12:40:46.838Z,33.02
2022-11-24T12:41:18.073Z,33.02
2022-11-24T12:41:43.538Z,32.86
2022-11-24T12:41:43.956Z,32.95
2022-11-24T12:41:57.591Z,32.87
2022-11-24T12:42:12.561Z,32.83
2022-11-24T12:42:27.544Z,32.86
2022-11-24T12:42:42.554Z,32.94
2022-11-24T12:42:57.553Z,32.97
2022-11-24T12:43:12.548Z,33.05
2022-11-24T12:43:27.570Z,33.00
2022-11-24T12:43:42.571Z,32.96
2022-11-24T12:43:57.539Z,32.91
2022-11-24T12:44:12.559Z,32.92
2022-11-24T12:44:27.535Z,32.97
2022-11-24T12:44:42.573Z,33.04
2022-11-24T12:44:57.544Z,33.08
2022-11-24T12:45:12.557Z,33.10
2022-11-24T12:45:27.553Z,33.11
2022-11-24T12:45:42.510Z,33.13
2022-11-24T12:45:57.550Z,33.13
2022-11-24T12:46:17.263Z,33.09
2022-11-24T12:46:28.614Z,33.15
2022-11-24T12:46:42.581Z,33.18
2022-11-24T12:46:57.566Z,33.16
2022-11-24T12:47:12.727Z,33.20
2022-11-24T12:47:27.538Z,33.21
2022-11-24T12:47:42.555Z,33.19
2022-11-24T12:47:57.525Z,33.21
2022-11-24T12:48:12.515Z,33.21
2022-11-24T12:48:27.515Z,33.21
2022-11-24T12:48:42.523Z,33.16
2022-11-24T12:48:57.555Z,33.17
2022-11-24T12:49:12.528Z,33.16
2022-11-24T12:49:27.513Z,33.17
2022-11-24T12:49:42.520Z,33.09
2022-11-24T12:49:57.541Z,33.08
2022-11-24T12:50:12.481Z,33.13
2022-11-24T12:50:27.520Z,33.07
2022-11-24T12:50:42.771Z,33.08
2022-11-24T12:50:57.517Z,33.09
2022-11-24T12:51:12.520Z,33.10
2022-11-24T12:51:27.511Z,33.07
2022-11-24T12:51:42.530Z,33.08
2022-11-24T12:51:57.516Z,33.01
2022-11-24T12:52:12.488Z,33.04
2022-11-24T12:52:27.507Z,32.95
2022-11-24T12:52:42.507Z,32.88
2022-11-24T12:52:59.073Z,32.63
2022-11-24T12:53:12.534Z,32.36
2022-11-24T12:53:27.510Z,32.27
2022-11-24T12:53:42.482Z,32.35
2022-11-24T12:53:57.491Z,32.42
2022-11-24T12:54:12.487Z,32.45
2022-11-24T12:54:27.522Z,32.61
2022-11-24T12:54:42.489Z,32.70
2022-11-24T12:54:57.504Z,32.69
2022-11-24T12:55:12.503Z,32.76
2022-11-24T12:55:27.476Z,32.84
2022-11-24T12:55:42.490Z,32.77
2022-11-24T12:55:57.510Z,32.85
2022-11-24T12:56:12.494Z,32.79
2022-11-24T12:56:27.499Z,32.82
2022-11-24T12:56:42.504Z,32.82
2022-11-24T12:56:57.478Z,32.81
2022-11-24T12:57:12.511Z,32.87
2022-11-24T12:57:27.487Z,32.83
2022-11-24T12:57:42.497Z,32.83
2022-11-24T12:57:57.479Z,32.83
2022-11-24T12:58:12.486Z,32.83
2022-11-24T12:58:27.520Z,32.85
2022-11-24T12:58:42.479Z,32.82
2022-11-24T12:58:57.505Z,32.81
2022-11-24T12:59:12.462Z,32.80
2022-11-24T12:59:27.509Z,32.78
2022-11-24T12:59:42.455Z,32.79
2022-11-24T12:59:57.478Z,32.79
2022-11-24T13:00:12.469Z,32.73
2022-11-24T13:00:27.481Z,32.76
2022-11-24T13:00:42.491Z,35.07
2022-11-24T13:00:57.433Z,35.40
2022-11-24T13:01:16.418Z,34.53
2022-11-24T13:01:27.482Z,34.03
2022-11-24T13:01:42.524Z,33.59
2022-11-24T13:01:57.582Z,33.33
2022-11-24T13:02:12.505Z,33.12
2022-11-24T13:02:27.530Z,33.03
2022-11-24T13:02:42.569Z,33.03
2022-11-24T13:02:57.576Z,33.92
2022-11-24T13:03:12.507Z,36.52
2022-11-24T13:03:27.435Z,44.84
2022-11-24T13:03:42.433Z,41.87
2022-11-24T13:03:57.445Z,40.06
2022-11-24T13:04:12.461Z,38.92
2022-11-24T13:04:27.452Z,38.26
2022-11-24T13:04:42.466Z,37.43
2022-11-24T13:04:57.432Z,36.73
2022-11-24T13:05:12.447Z,36.47
2022-11-24T13:05:27.426Z,36.24
2022-11-24T13:05:42.421Z,35.88
2022-11-24T13:05:57.443Z,35.68
2022-11-24T13:06:12.448Z,35.47
2022-11-24T13:06:27.451Z,35.26
2022-11-24T13:06:48.803Z,35.17
2022-11-24T13:06:58.437Z,34.94
2022-11-24T13:07:12.511Z,34.91
2022-11-24T13:19:00.731Z,33.46
2022-11-24T13:19:15.645Z,33.25
2022-11-24T13:19:30.742Z,33.20
2022-11-24T13:19:45.662Z,33.05
2022-11-24T13:20:00.670Z,33.20
2022-11-24T13:20:15.659Z,33.08
2022-11-24T13:20:30.670Z,33.11
2022-11-24T13:20:45.680Z,33.22
2022-11-24T13:21:00.671Z,33.14
2022-11-24T13:21:15.675Z,33.22
2022-11-24T13:21:30.633Z,33.24
2022-11-24T13:21:45.666Z,33.34
2022-11-24T13:22:00.664Z,33.31
2022-11-24T13:22:15.663Z,33.39
2022-11-24T13:22:30.634Z,33.15
2022-11-24T13:22:45.637Z,33.27
2022-11-24T13:23:00.660Z,33.40
2022-11-24T13:23:15.610Z,33.53
2022-11-24T13:23:30.837Z,33.61
2022-11-24T13:23:45.651Z,33.61
2022-11-24T13:24:00.661Z,33.53
2022-11-24T13:24:30.639Z,33.37
2022-11-24T13:24:45.660Z,33.42
2022-11-24T13:25:00.627Z,33.67
2022-11-24T13:25:15.620Z,33.70
2022-11-24T13:25:30.619Z,33.61
2022-11-24T13:25:45.625Z,33.66
2022-11-24T13:26:00.717Z,33.81
2022-11-24T13:26:15.606Z,33.77
2022-11-24T13:26:30.637Z,33.76
2022-11-24T13:26:45.646Z,33.81
2022-11-24T13:27:00.641Z,33.83
2022-11-24T13:27:15.963Z,33.86
2022-11-24T13:27:30.616Z,33.99
2022-11-24T13:27:45.639Z,34.11
2022-11-24T13:28:00.633Z,34.15
2022-11-24T13:28:20.345Z,34.14
2022-11-24T13:29:00.393Z,34.29
2022-11-24T13:29:03.206Z,34.38
2022-11-24T13:29:12.924Z,34.28
2022-11-24T13:29:24.975Z,34.34
2022-11-24T13:29:31.575Z,34.22
2022-11-24T13:29:45.622Z,34.33
2022-11-24T13:30:00.634Z,34.18
2022-11-24T13:30:15.645Z,34.38
2022-11-24T13:30:30.608Z,34.54
2022-11-24T13:30:45.609Z,34.43
2022-11-24T13:31:00.663Z,34.45
2022-11-24T13:31:15.680Z,34.38
2022-11-24T13:31:30.675Z,34.44
2022-11-24T13:31:45.684Z,34.40
2022-11-24T13:32:00.603Z,34.36
2022-11-24T13:32:15.615Z,34.57
2022-11-24T13:32:30.614Z,34.61
2022-11-24T13:32:45.606Z,34.54
2022-11-24T13:33:00.628Z,34.41
2022-11-24T13:33:17.088Z,34.36
2022-11-24T13:33:30.793Z,34.35
2022-11-24T13:33:45.593Z,34.26
2022-11-24T13:34:00.621Z,34.24
2022-11-24T13:34:15.663Z,34.22
2022-11-24T13:34:30.569Z,34.15
2022-11-24T13:34:45.622Z,34.37
2022-11-24T13:35:00.596Z,34.31
2022-11-24T13:35:15.747Z,34.20
2022-11-24T13:35:30.577Z,34.19
2022-11-24T13:35:45.698Z,34.16
2022-11-24T13:36:00.590Z,34.09
2022-11-24T13:36:15.591Z,34.05
2022-11-24T13:36:30.630Z,34.05
2022-11-24T13:36:45.563Z,34.05
2022-11-24T13:37:26.413Z,33.99
2022-11-24T13:37:31.681Z,33.98
2022-11-24T13:37:35.773Z,33.91
2022-11-24T13:37:45.558Z,33.94
2022-11-24T13:38:00.567Z,33.92
2022-11-24T13:38:15.563Z,33.91
2022-11-24T13:38:30.670Z,33.93
2022-11-24T13:38:45.673Z,33.93
2022-11-24T13:39:00.623Z,33.89
2022-11-24T13:39:15.554Z,33.88
2022-11-24T13:39:30.575Z,33.84
2022-11-24T13:39:50.174Z,33.91
2022-11-24T13:40:01.551Z,33.84
2022-11-24T13:40:15.572Z,33.84
2022-11-24T13:40:30.570Z,33.87
2022-11-24T13:41:13.014Z,33.87
2022-11-24T13:41:27.090Z,33.91
2022-11-24T13:41:28.225Z,33.89
2022-11-24T13:41:31.661Z,33.95
2022-11-24T13:41:45.655Z,34.04
2022-11-24T13:42:00.618Z,34.03
2022-11-24T13:42:42.106Z,34.00
2022-11-24T13:42:42.235Z,33.95
2022-11-24T13:42:46.643Z,33.96
2022-11-24T13:43:00.762Z,33.96
2022-11-24T13:43:15.587Z,34.11
2022-11-24T13:43:30.601Z,34.11
2022-11-24T13:43:45.633Z,34.11
2022-11-24T13:44:00.639Z,34.16
2022-11-24T13:44:15.633Z,34.07
2022-11-24T13:44:30.603Z,34.01
2022-11-24T13:44:45.616Z,34.16
2022-11-24T13:45:00.600Z,34.11
2022-11-24T13:45:15.779Z,34.08
2022-11-24T13:45:30.609Z,34.26
2022-11-24T13:45:45.605Z,34.41
2022-11-24T13:46:00.605Z,34.74
2022-11-24T13:46:15.792Z,34.57
2022-11-24T13:46:30.659Z,34.29
2022-11-24T13:46:45.706Z,34.24
2022-11-24T13:47:05.743Z,34.24
2022-11-24T13:47:16.670Z,34.21
2022-11-24T13:47:30.607Z,34.20
2022-11-24T13:47:45.700Z,34.21
2022-11-24T13:48:00.617Z,34.74
2022-11-24T13:48:15.636Z,34.65
2022-11-24T13:48:30.595Z,34.58
2022-11-24T13:48:45.736Z,34.39
2022-11-24T13:49:00.561Z,34.30
2022-11-24T13:49:15.871Z,34.20
2022-11-24T13:49:30.859Z,34.09
2022-11-24T13:49:45.612Z,34.15
2022-11-24T13:50:00.584Z,34.05
2022-11-24T13:50:15.583Z,34.07
2022-11-24T13:50:30.562Z,34.00
2022-11-24T13:50:45.575Z,33.95
2022-11-24T13:51:00.627Z,34.00
2022-11-24T13:51:15.569Z,33.96
2022-11-24T13:51:30.615Z,33.80
2022-11-24T13:51:45.572Z,33.83
2022-11-24T13:52:00.596Z,33.88
2022-11-24T13:52:15.553Z,33.84
2022-11-24T13:52:31.321Z,33.80
2022-11-24T13:52:45.528Z,33.82
2022-11-24T13:53:00.561Z,33.79
2022-11-24T13:53:15.888Z,35.49
2022-11-24T13:53:30.577Z,35.16
2022-11-24T13:53:45.557Z,34.77
2022-11-24T13:54:00.557Z,34.40
2022-11-24T13:54:15.561Z,34.25
2022-11-24T13:54:30.564Z,34.54
2022-11-24T13:54:45.545Z,41.25
2022-11-24T13:55:00.525Z,37.31
2022-11-24T13:55:15.544Z,35.86
2022-11-24T13:55:30.558Z,35.24
2022-11-24T13:55:45.534Z,34.72
2022-11-24T13:56:00.684Z,34.33
2022-11-24T13:56:15.533Z,34.06
2022-11-24T13:56:30.527Z,33.96
2022-11-24T13:56:45.517Z,34.02
2022-11-24T13:57:00.515Z,33.95
2022-11-24T13:57:15.673Z,33.85
2022-11-24T13:57:30.536Z,33.58
2022-11-24T13:57:45.838Z,33.65
2022-11-24T13:58:00.539Z,33.69
2022-11-24T13:58:15.576Z,33.61
2022-11-24T13:58:31.320Z,33.56
2022-11-24T13:58:45.561Z,33.53
2022-11-24T13:59:01.277Z,33.53
2022-11-24T13:59:15.538Z,33.48
2022-11-24T13:59:30.582Z,33.47
2022-11-24T13:59:45.520Z,33.45
2022-11-24T14:00:00.541Z,33.42
2022-11-24T14:00:15.511Z,33.42
2022-11-24T14:00:30.533Z,33.40
2022-11-24T14:00:45.532Z,33.40
2022-11-24T14:01:00.538Z,33.39
2022-11-24T14:01:15.584Z,33.38
2022-11-24T14:01:30.565Z,33.39
2022-11-24T14:01:45.591Z,33.35
2022-11-24T14:02:00.604Z,33.40
2022-11-24T14:02:15.574Z,33.42
2022-11-24T14:02:30.541Z,33.45
2022-11-24T14:02:45.597Z,33.55
2022-11-24T14:03:00.630Z,33.48
2022-11-24T14:03:15.584Z,33.54
2022-11-24T14:03:30.513Z,33.51
2022-11-24T14:04:07.253Z,33.56
2022-11-24T14:04:32.822Z,33.43
2022-11-24T14:04:43.165Z,33.44
2022-11-24T14:04:45.980Z,33.37
2022-11-24T14:05:00.802Z,33.37
2022-11-24T14:05:15.773Z,33.34
2022-11-24T14:05:30.742Z,33.34
2022-11-24T14:05:46.573Z,33.34
2022-11-24T14:06:00.858Z,33.36
2022-11-24T14:06:15.839Z,33.33
2022-11-24T14:06:30.742Z,33.37
2022-11-24T14:06:45.805Z,33.37
2022-11-24T14:07:16.789Z,33.41
2022-11-24T14:07:31.609Z,33.39
2022-11-24T14:07:47.529Z,33.37
2022-11-24T14:08:01.715Z,33.43
2022-11-24T14:08:15.759Z,33.40
2022-11-24T14:08:31.023Z,33.43
2022-11-24T14:08:45.741Z,33.38
2022-11-24T14:09:00.749Z,33.34
2022-11-24T14:09:15.712Z,33.34
2022-11-24T14:09:30.692Z,33.35
2022-11-24T14:09:45.753Z,33.31
2022-11-24T14:10:00.735Z,33.33
2022-11-24T14:10:15.683Z,33.40
2022-11-24T14:10:30.719Z,33.46
2022-11-24T14:10:46.025Z,33.51
2022-11-24T14:11:00.709Z,33.74
2022-11-24T14:11:15.708Z,33.66
2022-11-24T14:11:30.675Z,33.60
2022-11-24T14:11:45.690Z,33.57
2022-11-24T14:12:00.709Z,33.47
2022-11-24T14:12:15.736Z,33.53
2022-11-24T14:12:30.722Z,33.46
2022-11-24T14:12:45.807Z,33.49
2022-11-24T14:13:00.684Z,33.63
2022-11-24T14:13:15.699Z,33.69
2022-11-24T14:13:30.706Z,33.62
2022-11-24T14:13:45.857Z,33.66
2022-11-24T14:14:00.688Z,33.63
2022-11-24T14:14:17.700Z,33.60
2022-11-24T14:14:30.724Z,33.66
2022-11-24T14:14:45.692Z,33.66
2022-11-24T14:15:00.701Z,33.66
2022-11-24T14:15:15.650Z,33.65
2022-11-24T14:15:30.677Z,33.56
2022-11-24T14:15:45.718Z,33.56
2022-11-24T14:16:00.689Z,33.47
2022-11-24T14:16:15.698Z,33.36
2022-11-24T14:16:30.713Z,33.40
2022-11-24T14:16:45.688Z,33.33
2022-11-24T14:17:00.680Z,33.32
2022-11-24T14:17:15.697Z,33.27
2022-11-24T14:17:30.656Z,33.18
2022-11-24T14:17:45.659Z,33.06
2022-11-24T14:18:00.663Z,33.03
2022-11-24T14:18:15.659Z,33.13
2022-11-24T14:18:30.665Z,33.12
2022-11-24T14:18:45.690Z,33.06
2022-11-24T14:19:00.689Z,32.98
2022-11-24T14:19:15.646Z,32.94
2022-11-24T14:19:32.314Z,32.95
2022-11-24T14:19:45.671Z,32.85
2022-11-24T14:20:00.675Z,32.75
2022-11-24T14:20:15.668Z,32.58
2022-11-24T14:20:30.673Z,32.45
2022-11-24T14:20:45.653Z,32.38
2022-11-24T14:21:00.712Z,32.35
2022-11-24T14:21:15.631Z,32.25
2022-11-24T14:21:30.639Z,32.31
2022-11-24T14:21:45.670Z,32.39
2022-11-24T14:22:00.672Z,32.53
2022-11-24T14:22:15.681Z,32.58
2022-11-24T14:22:30.685Z,32.62
2022-11-24T14:22:45.660Z,32.58
2022-11-24T14:23:00.665Z,32.58
2022-11-24T14:23:15.630Z,32.38
2022-11-24T14:23:30.630Z,32.26
2022-11-24T14:23:45.620Z,32.16
2022-11-24T14:24:00.622Z,32.32
2022-11-24T14:24:15.638Z,32.39
2022-11-24T14:24:30.637Z,32.41
2022-11-24T14:24:45.807Z,32.41
2022-11-24T14:25:00.638Z,32.26
2022-11-24T14:25:15.638Z,32.22
2022-11-24T14:25:30.619Z,32.22
2022-11-24T14:25:45.647Z,32.15
2022-11-24T14:26:00.681Z,32.19
2022-11-24T14:26:15.639Z,32.15
2022-11-24T14:26:30.666Z,32.10
2022-11-24T14:26:45.580Z,32.03
2022-11-24T14:27:00.609Z,32.09
2022-11-24T14:27:15.608Z,32.12
2022-11-24T14:27:30.609Z,32.66
2022-11-24T14:27:45.645Z,81.05
2022-11-24T14:28:01.042Z,86.05
2022-11-24T14:28:15.670Z,85.35
2022-11-24T14:28:30.672Z,83.87
2022-11-24T14:28:45.679Z,72.16
2022-11-24T14:29:00.618Z,70.92
2022-11-24T14:29:15.881Z,50.93
2022-11-24T14:29:30.639Z,39.06
2022-11-24T14:29:48.830Z,36.35
2022-11-24T14:30:01.656Z,36.17
2022-11-24T14:30:15.617Z,35.11
2022-11-24T14:30:30.627Z,33.31
2022-11-24T14:30:45.587Z,35.38
2022-11-24T14:31:00.646Z,34.70
2022-11-24T14:31:15.652Z,33.10
2022-11-24T14:31:30.625Z,33.54
2022-11-24T14:31:45.687Z,33.60
2022-11-24T14:32:00.617Z,32.79
2022-11-24T14:32:15.618Z,32.46
2022-11-24T14:32:30.611Z,32.33
2022-11-24T14:32:45.583Z,32.21
2022-11-24T14:33:00.583Z,32.08
2022-11-24T14:33:15.686Z,32.00
2022-11-24T14:33:30.614Z,31.98
2022-11-24T14:33:45.608Z,31.91
2022-11-24T14:34:00.589Z,31.84
2022-11-24T14:34:15.982Z,31.93
2022-11-24T14:34:30.746Z,31.83
2022-11-24T14:34:45.598Z,31.73
2022-11-24T14:35:00.649Z,31.62
2022-11-24T14:35:15.699Z,31.83
2022-11-24T14:35:30.705Z,31.73
2022-11-24T14:35:45.639Z,31.76
2022-11-24T14:36:00.594Z,31.76
2022-11-24T14:36:15.705Z,31.64
2022-11-24T14:36:30.619Z,31.60
2022-11-24T14:36:45.631Z,31.46
2022-11-24T14:37:00.608Z,31.56
2022-11-24T14:37:15.621Z,31.36
2022-11-24T14:37:30.657Z,31.41
2022-11-24T14:37:45.569Z,31.58
2022-11-24T14:38:01.018Z,31.62
2022-11-24T14:38:15.569Z,31.65
2022-11-24T14:38:30.574Z,31.68
2022-11-24T14:38:45.580Z,31.76
2022-11-24T14:39:00.550Z,31.77
2022-11-24T14:39:15.604Z,31.67
2022-11-24T14:39:30.567Z,31.65
2022-11-24T14:39:45.544Z,31.59
2022-11-24T14:40:00.577Z,31.63
2022-11-24T14:40:15.549Z,31.56
2022-11-24T14:40:30.546Z,31.44
2022-11-24T14:40:45.569Z,31.31
2022-11-24T14:41:00.551Z,31.34
2022-11-24T14:41:15.700Z,31.40
2022-11-24T14:41:30.504Z,31.48
2022-11-24T14:41:45.532Z,31.47
2022-11-24T14:42:00.567Z,31.44
2022-11-24T14:42:15.504Z,31.21
2022-11-24T14:42:30.601Z,31.32
2022-11-24T14:42:45.522Z,31.36
2022-11-24T14:43:00.544Z,31.42
2022-11-24T14:43:15.524Z,31.39
2022-11-24T14:43:30.536Z,31.39
2022-11-24T14:43:45.539Z,31.38
2022-11-24T14:44:00.543Z,31.39
2022-11-24T14:44:15.657Z,31.52
2022-11-24T14:44:30.511Z,31.43
2022-11-24T14:44:45.513Z,31.33
2022-11-24T14:45:00.562Z,31.30
2022-11-24T14:45:15.522Z,31.18
2022-11-24T14:45:30.533Z,31.18
2022-11-24T14:45:45.520Z,31.29
2022-11-24T14:46:00.563Z,31.23
2022-11-24T14:46:15.547Z,31.16
2022-11-24T14:46:30.714Z,31.10
2022-11-24T14:46:45.558Z,31.07
2022-11-24T14:47:00.597Z,31.11
2022-11-24T14:47:15.501Z,31.23
2022-11-24T14:47:32.037Z,31.27
2022-11-24T14:47:45.590Z,31.34
2022-11-24T14:48:00.511Z,31.20
2022-11-24T14:48:15.514Z,31.04
2022-11-24T14:48:30.521Z,31.07
2022-11-24T14:48:45.521Z,30.94
2022-11-24T14:49:00.513Z,30.89
2022-11-24T14:49:15.589Z,30.87
2022-11-24T14:49:30.507Z,30.81
2022-11-24T14:49:45.506Z,30.76
2022-11-24T14:50:00.587Z,30.71
2022-11-24T14:50:15.571Z,30.71
2022-11-24T14:50:30.532Z,30.95
2022-11-24T14:50:45.498Z,31.12
2022-11-24T14:51:00.498Z,31.27
2022-11-24T14:51:15.499Z,31.18
2022-11-24T14:51:30.488Z,30.91
2022-11-24T14:51:45.494Z,31.04
2022-11-24T14:52:00.478Z,31.02
2022-11-24T14:52:15.494Z,34.36
2022-11-24T14:52:30.475Z,32.35
2022-11-24T14:52:45.490Z,31.62
2022-11-24T14:53:00.523Z,31.75
2022-11-24T14:53:15.483Z,32.08
2022-11-24T14:53:30.501Z,31.99
2022-11-24T14:53:45.477Z,31.20
2022-11-24T14:54:00.477Z,30.95
2022-11-24T14:54:15.560Z,31.01
2022-11-24T14:54:30.485Z,30.93
2022-11-24T14:54:45.480Z,30.85
2022-11-24T14:55:17.365Z,30.73
2022-11-24T14:55:22.878Z,30.89
2022-11-24T14:55:31.471Z,30.84
2022-11-24T14:55:45.468Z,30.76
2022-11-24T14:56:00.450Z,30.71
2022-11-24T14:56:15.435Z,30.47
2022-11-24T14:56:30.475Z,30.23
2022-11-24T14:56:45.475Z,30.10
2022-11-24T14:57:00.448Z,30.26
2022-11-24T14:57:15.479Z,30.36
2022-11-24T14:57:30.450Z,30.42
2022-11-24T14:57:45.430Z,30.44
2022-11-24T14:58:00.430Z,30.49
2022-11-24T14:58:15.540Z,30.55
2022-11-24T14:58:30.460Z,29.70
2022-11-24T14:58:45.455Z,29.58
2022-11-24T14:59:00.463Z,29.91
2022-11-24T14:59:15.523Z,29.95
2022-11-24T14:59:30.477Z,30.03
2022-11-24T14:59:45.423Z,30.08
2022-11-24T15:00:00.426Z,29.95
2022-11-24T15:00:15.433Z,30.19
2022-11-24T15:00:30.534Z,29.91
2022-11-24T15:00:45.493Z,30.00
2022-11-24T15:01:00.496Z,30.04
2022-11-24T15:01:15.461Z,29.95
2022-11-24T15:01:30.443Z,29.69
2022-11-24T15:01:45.491Z,29.80
2022-11-24T15:02:00.478Z,30.00
2022-11-24T15:02:15.477Z,29.90
2022-11-24T15:02:30.552Z,29.93
2022-11-24T15:02:45.452Z,29.87
2022-11-24T15:03:00.445Z,29.97
2022-11-24T15:03:15.448Z,29.98
2022-11-24T15:03:30.500Z,30.02
2022-11-24T15:03:45.410Z,29.71
2022-11-24T15:04:00.436Z,29.51
2022-11-24T15:04:32.388Z,29.54
2022-11-24T15:05:02.120Z,29.77
2022-11-24T15:05:02.214Z,29.81
2022-11-24T15:05:03.132Z,29.86
2022-11-24T15:05:15.400Z,29.79
2022-11-24T15:05:30.407Z,29.75
2022-11-24T15:05:45.421Z,29.79
2022-11-24T15:06:00.431Z,29.68
2022-11-24T15:06:15.414Z,29.68
2022-11-24T15:06:30.409Z,29.74
2022-11-24T15:06:45.440Z,29.69
2022-11-24T15:07:00.466Z,29.80
2022-11-24T15:07:15.514Z,29.80
2022-11-24T15:07:30.415Z,29.77
2022-11-24T15:07:45.513Z,29.79
2022-11-24T15:08:00.541Z,29.82
2022-11-24T15:08:15.404Z,29.86
2022-11-24T15:08:30.496Z,29.86
2022-11-24T15:08:45.411Z,29.87
2022-11-24T15:09:00.414Z,29.86
2022-11-24T15:09:15.457Z,29.77
2022-11-24T15:09:30.496Z,29.64
2022-11-24T15:09:45.380Z,29.55
2022-11-24T15:10:00.402Z,29.54
2022-11-24T15:10:15.396Z,29.60
2022-11-24T15:10:33.642Z,29.54
2022-11-24T15:10:45.404Z,29.58
2022-11-24T15:11:00.401Z,29.61
2022-11-24T15:11:15.394Z,29.48
2022-11-24T15:11:30.369Z,29.45
2022-11-24T15:11:45.368Z,29.39
2022-11-24T15:12:00.384Z,29.31
2022-11-24T15:12:15.385Z,29.28
2022-11-24T15:12:30.385Z,29.34
2022-11-24T15:12:45.389Z,29.21
2022-11-24T15:13:00.391Z,29.21
2022-11-24T15:13:15.375Z,29.25
2022-11-24T15:13:30.350Z,29.25
2022-11-24T15:13:45.383Z,29.21
2022-11-24T15:14:00.384Z,29.33
2022-11-24T15:14:15.381Z,29.53
2022-11-24T15:14:30.444Z,29.55
2022-11-24T15:14:45.434Z,29.76
2022-11-24T15:15:00.395Z,29.71
2022-11-24T15:15:15.337Z,29.66
2022-11-24T15:15:30.340Z,29.39
2022-11-24T15:15:45.330Z,29.30
2022-11-24T15:16:02.971Z,29.13
2022-11-24T15:16:15.446Z,29.12
2022-11-24T15:16:30.700Z,29.34
2022-11-24T15:16:45.428Z,29.27
2022-11-24T15:17:00.356Z,29.44
2022-11-24T15:17:15.338Z,29.43
2022-11-24T15:17:30.344Z,29.33
2022-11-24T15:17:45.362Z,29.24
2022-11-24T15:18:00.365Z,29.18
2022-11-24T15:18:15.355Z,29.30
2022-11-24T15:18:30.348Z,29.35
2022-11-24T15:18:45.349Z,29.38
2022-11-24T15:19:00.346Z,29.18
2022-11-24T15:19:15.355Z,29.10
2022-11-24T15:19:30.333Z,29.10
2022-11-24T15:19:45.563Z,29.07
2022-11-24T15:20:00.335Z,28.98
2022-11-24T15:20:15.382Z,28.99
2022-11-24T15:20:30.370Z,29.01
2022-11-24T15:20:45.390Z,29.24
2022-11-24T15:21:00.304Z,29.29
2022-11-24T15:21:19.163Z,29.27
2022-11-24T15:21:30.316Z,29.25
2022-11-24T15:21:45.556Z,29.32
2022-11-24T15:22:00.332Z,29.29
2022-11-24T15:22:15.324Z,29.39
2022-11-24T15:22:30.341Z,29.44
2022-11-24T15:22:45.327Z,29.39
2022-11-24T15:23:00.295Z,29.40
2022-11-24T15:23:15.328Z,29.43
2022-11-24T15:23:30.289Z,29.26
2022-11-24T15:23:45.294Z,29.33
2022-11-24T15:24:00.314Z,29.46
2022-11-24T15:24:15.314Z,29.43
2022-11-24T15:24:30.335Z,29.37
2022-11-24T15:24:45.301Z,29.33
2022-11-24T15:25:00.289Z,29.33
2022-11-24T15:25:15.369Z,29.32
2022-11-24T15:25:30.297Z,29.18
2022-11-24T15:25:45.308Z,29.20
2022-11-24T15:26:00.309Z,29.17
2022-11-24T15:26:15.296Z,29.20
2022-11-24T15:26:34.093Z,29.21
2022-11-24T15:26:46.311Z,29.24
2022-11-24T15:27:00.275Z,29.22
2022-11-24T15:27:15.260Z,29.12
2022-11-24T15:27:30.276Z,29.21
2022-11-24T15:27:45.331Z,29.28
2022-11-24T15:28:00.300Z,29.31
2022-11-24T15:28:15.269Z,29.33
2022-11-24T15:28:30.300Z,29.29
2022-11-24T15:28:45.282Z,29.42
2022-11-24T15:29:00.275Z,29.53
2022-11-24T15:29:15.350Z,29.55
2022-11-24T15:29:30.275Z,29.39
2022-11-24T15:29:45.329Z,29.60
2022-11-24T15:30:01.957Z,29.79
2022-11-24T15:30:15.305Z,29.83
2022-11-24T15:30:30.336Z,29.81
2022-11-24T15:30:45.279Z,29.79
2022-11-24T15:31:00.315Z,29.67
2022-11-24T15:31:15.336Z,29.70
2022-11-24T15:31:30.341Z,29.80
2022-11-24T15:31:50.819Z,29.86
2022-11-24T15:32:01.311Z,29.90
2022-11-24T15:32:15.303Z,29.97
2022-11-24T15:32:30.264Z,29.97
2022-11-24T15:32:45.284Z,30.18
2022-11-24T15:33:00.253Z,30.14
2022-11-24T15:33:15.334Z,30.17
2022-11-24T15:33:30.276Z,30.22
2022-11-24T15:33:45.269Z,30.24
2022-11-24T15:34:00.267Z,30.21
2022-11-24T15:34:15.232Z,30.21
2022-11-24T15:34:30.366Z,30.16
2022-11-24T15:34:45.263Z,30.23
2022-11-24T15:35:00.223Z,30.21
2022-11-24T15:35:15.244Z,30.28
2022-11-24T15:35:30.268Z,30.21
2022-11-24T15:35:45.286Z,30.23
2022-11-24T15:36:00.229Z,30.25
2022-11-24T15:36:15.243Z,30.30
2022-11-24T15:36:30.262Z,30.34
2022-11-24T15:36:45.221Z,30.40
2022-11-24T15:37:00.234Z,30.44
2022-11-24T15:37:15.241Z,30.50
2022-11-24T15:37:34.041Z,30.49
2022-11-24T15:37:45.238Z,30.50
2022-11-24T15:38:00.247Z,30.56
2022-11-24T15:38:15.235Z,30.57
2022-11-24T15:38:30.200Z,30.59
2022-11-24T15:38:45.212Z,30.65
2022-11-24T15:39:00.241Z,30.64
2022-11-24T15:39:15.253Z,30.68
2022-11-24T15:39:30.232Z,30.65
2022-11-24T15:39:45.222Z,30.71
2022-11-24T15:40:00.271Z,30.80
2022-11-24T15:40:15.210Z,30.89
2022-11-24T15:40:30.241Z,30.92
2022-11-24T15:40:45.230Z,30.93
2022-11-24T15:41:00.260Z,30.92
2022-11-24T15:41:15.215Z,30.88
2022-11-24T15:41:30.251Z,30.86
2022-11-24T15:41:45.221Z,30.78
2022-11-24T15:42:00.186Z,30.77
2022-11-24T15:42:15.231Z,30.73
2022-11-24T15:42:30.211Z,30.68
2022-11-24T15:42:45.221Z,30.72
2022-11-24T15:43:05.016Z,30.77
2022-11-24T15:43:16.208Z,30.77
2022-11-24T15:43:30.220Z,30.86
2022-11-24T15:43:45.234Z,30.87
2022-11-24T15:44:00.193Z,30.91
2022-11-24T15:44:15.188Z,30.83